createdAt,value
2019-05-03T00:00:26.834Z,1006.43
2019-05-03T00:01:26.824Z,1006.44
2019-05-03T00:02:26.817Z,1006.43
2019-05-03T00:03:26.807Z,1006.42
2019-05-03T00:04:26.802Z,1006.46
2019-05-03T00:05:26.796Z,1006.42
2019-05-03T00:06:26.791Z,1006.46
2019-05-03T00:07:26.790Z,1006.45
2019-05-03T00:08:26.779Z,1006.46
2019-05-03T00:09:26.769Z,1006.48
2019-05-03T00:10:26.764Z,1006.50
2019-05-03T00:11:26.752Z,1006.46
2019-05-03T00:12:26.745Z,1006.49
2019-05-03T00:13:26.743Z,1006.48
2019-05-03T00:14:26.737Z,1006.52
2019-05-03T00:15:26.724Z,1006.52
2019-05-03T00:16:26.717Z,1006.47
2019-05-03T00:17:26.716Z,1006.48
2019-05-03T00:18:26.708Z,1006.47
2019-05-03T00:19:26.703Z,1006.48
2019-05-03T00:20:26.700Z,1006.51
2019-05-03T00:21:26.686Z,1006.44
2019-05-03T00:22:26.680Z,1006.46
2019-05-03T00:23:26.671Z,1006.47
2019-05-03T00:24:26.669Z,1006.48
2019-05-03T00:25:26.662Z,1006.47
2019-05-03T00:26:26.656Z,1006.48
2019-05-03T00:27:26.648Z,1006.47
2019-05-03T00:28:26.680Z,1006.48
2019-05-03T00:29:26.636Z,1006.47
2019-05-03T00:30:26.622Z,1006.47
2019-05-03T00:31:26.620Z,1006.44
2019-05-03T00:32:26.613Z,1006.47
2019-05-03T00:33:26.600Z,1006.48
2019-05-03T00:34:26.595Z,1006.43
2019-05-03T00:35:26.589Z,1006.46
2019-05-03T00:36:26.584Z,1006.41
2019-05-03T00:37:26.592Z,1006.42
2019-05-03T00:38:26.573Z,1006.43
2019-05-03T00:39:26.565Z,1006.44
2019-05-03T00:40:26.564Z,1006.45
2019-05-03T00:41:26.547Z,1006.45
2019-05-03T00:42:26.541Z,1006.43
2019-05-03T00:43:26.532Z,1006.49
2019-05-03T00:44:26.528Z,1006.46
2019-05-03T00:45:26.524Z,1006.45
2019-05-03T00:46:26.517Z,1006.43
2019-05-03T00:47:26.505Z,1006.45
2019-05-03T00:48:26.502Z,1006.48
2019-05-03T00:49:26.495Z,1006.54
2019-05-03T00:50:26.490Z,1006.49
2019-05-03T00:51:26.487Z,1006.49
2019-05-03T00:52:26.476Z,1006.47
2019-05-03T00:53:26.465Z,1006.48
2019-05-03T00:54:26.459Z,1006.52
2019-05-03T00:55:26.453Z,1006.48
2019-05-03T00:56:26.444Z,1006.48
2019-05-03T00:57:26.441Z,1006.48
2019-05-03T00:58:26.434Z,1006.47
2019-05-03T00:59:26.425Z,1006.48
2019-05-03T01:00:26.419Z,1006.41
2019-05-03T01:01:26.407Z,1006.48
2019-05-03T01:02:26.464Z,1006.45
2019-05-03T01:03:26.399Z,1006.44
2019-05-03T01:04:26.391Z,1006.41
2019-05-03T01:05:26.380Z,1006.44
2019-05-03T01:06:26.373Z,1006.42
2019-05-03T01:07:26.368Z,1006.39
2019-05-03T01:08:26.361Z,1006.39
2019-05-03T01:09:26.358Z,1006.44
2019-05-03T01:10:26.352Z,1006.47
2019-05-03T01:11:26.348Z,1006.51
2019-05-03T01:12:26.335Z,1006.43
2019-05-03T01:13:26.324Z,1006.46
2019-05-03T01:14:26.318Z,1006.46
2019-05-03T01:15:26.313Z,1006.49
2019-05-03T01:16:26.310Z,1006.47
2019-05-03T01:17:26.303Z,1006.49
2019-05-03T01:18:26.295Z,1006.48
2019-05-03T01:19:26.285Z,1006.43
2019-05-03T01:20:26.279Z,1006.50
2019-05-03T01:21:26.275Z,1006.47
2019-05-03T01:22:26.270Z,1006.46
2019-05-03T01:23:26.258Z,1006.53
2019-05-03T01:24:26.253Z,1006.51
2019-05-03T01:25:32.144Z,1006.49
2019-05-03T01:26:26.232Z,1006.50
2019-05-03T01:27:26.227Z,1006.54
2019-05-03T01:28:26.218Z,1006.51
2019-05-03T01:29:26.215Z,1006.49
2019-05-03T01:30:26.209Z,1006.53
2019-05-03T01:31:26.204Z,1006.51
2019-05-03T01:32:26.197Z,1006.43
2019-05-03T01:33:26.186Z,1006.51
2019-05-03T01:34:26.185Z,1006.46
2019-05-03T01:35:26.177Z,1006.48
2019-05-03T01:36:26.168Z,1006.47
2019-05-03T01:37:26.156Z,1006.44
2019-05-03T01:38:26.150Z,1006.49
2019-05-03T01:39:26.140Z,1006.48
2019-05-03T01:40:26.134Z,1006.50
2019-05-03T01:41:26.136Z,1006.46
2019-05-03T01:42:26.123Z,1006.52
2019-05-03T01:43:26.117Z,1006.48
2019-05-03T01:44:26.108Z,1006.51
2019-05-03T01:45:26.095Z,1006.54
2019-05-03T01:46:26.088Z,1006.51
2019-05-03T01:47:26.083Z,1006.56
2019-05-03T01:48:26.079Z,1006.54
2019-05-03T01:49:26.072Z,1006.57
2019-05-03T01:50:26.067Z,1006.62
2019-05-03T01:51:26.054Z,1006.58
2019-05-03T01:52:26.047Z,1006.59
2019-05-03T01:53:26.043Z,1006.56
2019-05-03T01:54:26.037Z,1006.58
2019-05-03T01:55:26.026Z,1006.56
2019-05-03T01:56:26.019Z,1006.58
2019-05-03T01:57:26.007Z,1006.55
2019-05-03T01:58:26.001Z,1006.52
2019-05-03T01:59:25.994Z,1006.57
2019-05-03T02:00:25.986Z,1006.60
2019-05-03T02:01:25.982Z,1006.57
2019-05-03T02:02:25.988Z,1006.62
2019-05-03T02:03:25.972Z,1006.59
2019-05-03T02:04:25.963Z,1006.62
2019-05-03T02:05:25.957Z,1006.65
2019-05-03T02:06:25.944Z,1006.61
2019-05-03T02:07:25.943Z,1006.60
2019-05-03T02:08:25.934Z,1006.61
2019-05-03T02:09:25.930Z,1006.63
2019-05-03T02:10:25.918Z,1006.67
2019-05-03T02:11:25.905Z,1006.65
2019-05-03T02:12:25.898Z,1006.66
2019-05-03T02:13:25.896Z,1006.64
2019-05-03T02:14:25.888Z,1006.63
2019-05-03T02:15:25.883Z,1006.63
2019-05-03T02:16:25.877Z,1006.67
2019-05-03T02:17:25.865Z,1006.64
2019-05-03T02:18:25.858Z,1006.68
2019-05-03T02:19:25.850Z,1006.63
2019-05-03T02:20:25.841Z,1006.66
2019-05-03T02:21:25.838Z,1006.65
2019-05-03T02:22:25.830Z,1006.68
2019-05-03T02:23:25.819Z,1006.66
2019-05-03T02:24:25.812Z,1006.64
2019-05-03T02:25:25.809Z,1006.73
2019-05-03T02:26:25.803Z,1006.71
2019-05-03T02:27:25.797Z,1006.73
2019-05-03T02:28:25.790Z,1006.68
2019-05-03T02:29:25.779Z,1006.75
2019-05-03T02:30:25.773Z,1006.75
2019-05-03T02:31:25.765Z,1006.76
2019-05-03T02:32:25.758Z,1006.73
2019-05-03T02:33:25.753Z,1006.75
2019-05-03T02:34:25.747Z,1006.76
2019-05-03T02:35:25.737Z,1006.81
2019-05-03T02:36:25.730Z,1006.80
2019-05-03T02:37:25.718Z,1006.81
2019-05-03T02:38:25.712Z,1006.81
2019-05-03T02:39:25.711Z,1006.82
2019-05-03T02:40:25.704Z,1006.84
2019-05-03T02:41:25.690Z,1006.86
2019-05-03T02:42:26.541Z,1006.88
2019-05-03T02:43:26.295Z,1006.82
2019-05-03T02:44:26.612Z,1006.90
2019-05-03T02:45:26.009Z,1006.87
2019-05-03T02:46:25.691Z,1006.95
2019-05-03T02:47:26.564Z,1006.94
2019-05-03T02:48:25.758Z,1006.91
2019-05-03T02:49:25.994Z,1006.91
2019-05-03T02:50:26.157Z,1006.90
2019-05-03T02:51:26.166Z,1007.03
2019-05-03T02:52:25.692Z,1006.98
2019-05-03T02:53:26.027Z,1006.97
2019-05-03T02:54:27.023Z,1007.00
2019-05-03T02:55:26.272Z,1006.98
2019-05-03T02:56:26.233Z,1007.02
2019-05-03T02:57:25.931Z,1006.99
2019-05-03T02:58:25.605Z,1007.00
2019-05-03T02:59:26.352Z,1006.94
2019-05-03T03:00:25.681Z,1006.96
2019-05-03T03:01:26.524Z,1006.99
2019-05-03T03:02:26.390Z,1007.02
2019-05-03T03:03:25.689Z,1006.97
2019-05-03T03:04:26.134Z,1007.00
2019-05-03T03:05:25.519Z,1006.94
2019-05-03T03:06:26.676Z,1006.97
2019-05-03T03:07:25.974Z,1006.92
2019-05-03T03:08:25.496Z,1006.95
2019-05-03T03:09:26.125Z,1006.93
2019-05-03T03:10:26.424Z,1007.01
2019-05-03T03:11:26.109Z,1007.03
2019-05-03T03:12:25.857Z,1007.01
2019-05-03T03:13:25.642Z,1006.99
2019-05-03T03:14:25.875Z,1007.02
2019-05-03T03:15:25.736Z,1007.00
2019-05-03T03:16:25.436Z,1007.03
2019-05-03T03:17:25.684Z,1006.99
2019-05-03T03:18:25.689Z,1006.99
2019-05-03T03:19:26.195Z,1006.99
2019-05-03T03:20:25.556Z,1007.01
2019-05-03T03:21:26.159Z,1006.99
2019-05-03T03:22:26.023Z,1006.96
2019-05-03T03:23:26.259Z,1006.99
2019-05-03T03:24:25.947Z,1006.97
2019-05-03T03:25:25.950Z,1006.93
2019-05-03T03:26:37.623Z,1006.99
2019-05-03T03:27:25.864Z,1006.92
2019-05-03T03:28:25.488Z,1006.99
2019-05-03T03:29:25.615Z,1007.01
2019-05-03T03:30:29.300Z,1007.00
2019-05-03T03:31:28.585Z,1006.97
2019-05-03T03:32:29.322Z,1006.99
2019-05-03T03:33:28.194Z,1007.02
2019-05-03T03:34:27.951Z,1007.02
2019-05-03T03:35:29.954Z,1006.99
2019-05-03T03:36:44.725Z,1006.99
2019-05-03T03:37:25.989Z,1007.02
2019-05-03T03:38:26.139Z,1007.00
2019-05-03T03:39:26.017Z,1006.98
2019-05-03T03:40:25.577Z,1007.01
2019-05-03T03:41:25.246Z,1007.04
2019-05-03T03:42:25.332Z,1007.06
2019-05-03T03:43:25.922Z,1007.03
2019-05-03T03:44:25.760Z,1007.06
2019-05-03T03:45:25.546Z,1007.06
2019-05-03T03:46:25.382Z,1007.09
2019-05-03T03:47:27.283Z,1007.11
2019-05-03T03:48:26.584Z,1007.07
2019-05-03T03:49:26.254Z,1007.12
2019-05-03T03:50:25.974Z,1007.10
2019-05-03T03:51:26.315Z,1007.15
2019-05-03T03:52:25.599Z,1007.13
2019-05-03T03:53:26.452Z,1007.13
2019-05-03T03:54:26.062Z,1007.11
2019-05-03T03:55:26.431Z,1007.11
2019-05-03T03:56:25.542Z,1007.09
2019-05-03T03:57:25.387Z,1007.13
2019-05-03T03:58:26.978Z,1007.18
2019-05-03T03:59:26.765Z,1007.16
2019-05-03T04:00:25.778Z,1007.18
2019-05-03T04:01:26.789Z,1007.19
2019-05-03T04:02:26.539Z,1007.15
2019-05-03T04:03:25.999Z,1007.16
2019-05-03T04:04:25.953Z,1007.17
2019-05-03T04:05:25.617Z,1007.23
2019-05-03T04:06:26.908Z,1007.23
2019-05-03T04:07:26.110Z,1007.20
2019-05-03T04:08:25.282Z,1007.26
2019-05-03T04:09:25.717Z,1007.25
2019-05-03T04:10:26.156Z,1007.26
2019-05-03T04:11:25.906Z,1007.28
2019-05-03T04:12:26.460Z,1007.27
2019-05-03T04:13:25.660Z,1007.28
2019-05-03T04:14:25.462Z,1007.28
2019-05-03T04:15:26.083Z,1007.35
2019-05-03T04:16:25.901Z,1007.32
2019-05-03T04:17:26.146Z,1007.33
2019-05-03T04:18:25.566Z,1007.33
2019-05-03T04:19:25.239Z,1007.33
2019-05-03T04:20:25.697Z,1007.35
2019-05-03T04:21:25.691Z,1007.42
2019-05-03T04:22:25.537Z,1007.39
2019-05-03T04:23:26.415Z,1007.41
2019-05-03T04:24:25.872Z,1007.46
2019-05-03T04:25:26.170Z,1007.37
2019-05-03T04:26:29.600Z,1007.41
2019-05-03T04:27:27.606Z,1007.49
2019-05-03T04:28:25.566Z,1007.50
2019-05-03T04:29:25.517Z,1007.55
2019-05-03T04:30:25.691Z,1007.56
2019-05-03T04:31:26.178Z,1007.62
2019-05-03T04:32:28.811Z,1007.65
2019-05-03T04:33:26.970Z,1007.63
2019-05-03T04:34:26.366Z,1007.67
2019-05-03T04:35:26.661Z,1007.73
2019-05-03T04:36:26.176Z,1007.69
2019-05-03T04:37:26.589Z,1007.70
2019-05-03T04:38:25.741Z,1007.78
2019-05-03T04:39:25.611Z,1007.80
2019-05-03T04:40:26.106Z,1007.79
2019-05-03T04:41:26.844Z,1007.80
2019-05-03T04:42:25.542Z,1007.78
2019-05-03T04:43:26.478Z,1007.89
2019-05-03T04:44:26.005Z,1007.87
2019-05-03T04:45:25.517Z,1007.92
2019-05-03T04:46:25.987Z,1007.88
2019-05-03T04:47:26.446Z,1007.94
2019-05-03T04:48:25.329Z,1007.96
2019-05-03T04:49:26.228Z,1007.98
2019-05-03T04:50:25.472Z,1007.92
2019-05-03T04:51:25.843Z,1007.96
2019-05-03T04:52:25.953Z,1007.94
2019-05-03T04:53:25.975Z,1007.97
2019-05-03T04:54:25.389Z,1008.01
2019-05-03T04:55:26.724Z,1008.02
2019-05-03T04:56:26.047Z,1008.05
2019-05-03T04:57:36.713Z,1008.03
2019-05-03T04:58:25.847Z,1008.06
2019-05-03T04:59:25.495Z,1008.03
2019-05-03T05:00:25.627Z,1008.09
2019-05-03T05:01:26.104Z,1008.04
2019-05-03T05:02:26.308Z,1008.05
2019-05-03T05:03:26.583Z,1008.09
2019-05-03T05:04:25.414Z,1008.07
2019-05-03T05:05:26.152Z,1008.08
2019-05-03T05:06:25.815Z,1008.10
2019-05-03T05:07:26.060Z,1008.13
2019-05-03T05:08:25.318Z,1008.17
2019-05-03T05:09:25.885Z,1008.21
2019-05-03T05:10:25.997Z,1008.21
2019-05-03T05:11:26.356Z,1008.22
2019-05-03T05:12:25.155Z,1008.25
2019-05-03T05:13:25.110Z,1008.27
2019-05-03T05:14:25.873Z,1008.19
2019-05-03T05:15:26.550Z,1008.19
2019-05-03T05:16:25.174Z,1008.24
2019-05-03T05:17:26.312Z,1008.21
2019-05-03T05:18:26.380Z,1008.28
2019-05-03T05:19:25.406Z,1008.28
2019-05-03T05:20:24.854Z,1008.24
2019-05-03T05:21:25.267Z,1008.28
2019-05-03T05:22:24.735Z,1008.26
2019-05-03T05:23:25.096Z,1008.27
2019-05-03T05:24:25.632Z,1008.29
2019-05-03T05:25:25.118Z,1008.32
2019-05-03T05:26:24.836Z,1008.31
2019-05-03T05:27:25.661Z,1008.31
2019-05-03T05:28:24.987Z,1008.31
2019-05-03T05:29:25.338Z,1008.29
2019-05-03T05:30:25.233Z,1008.35
2019-05-03T05:31:25.461Z,1008.37
2019-05-03T05:32:24.736Z,1008.40
2019-05-03T05:33:25.254Z,1008.43
2019-05-03T05:34:24.596Z,1008.47
2019-05-03T05:35:24.843Z,1008.48
2019-05-03T05:36:24.457Z,1008.50
2019-05-03T05:37:25.039Z,1008.51
2019-05-03T05:38:25.597Z,1008.56
2019-05-03T05:39:24.564Z,1008.57
2019-05-03T05:40:24.618Z,1008.64
2019-05-03T05:41:24.540Z,1008.59
2019-05-03T05:42:25.077Z,1008.62
2019-05-03T05:43:25.534Z,1008.61
2019-05-03T05:44:24.831Z,1008.61
2019-05-03T05:45:24.675Z,1008.59
2019-05-03T05:46:24.907Z,1008.56
2019-05-03T05:47:25.405Z,1008.60
2019-05-03T05:48:24.668Z,1008.60
2019-05-03T05:49:25.978Z,1008.60
2019-05-03T05:50:25.386Z,1008.65
2019-05-03T05:51:24.844Z,1008.64
2019-05-03T05:52:24.595Z,1008.69
2019-05-03T05:53:25.384Z,1008.71
2019-05-03T05:54:24.588Z,1008.71
2019-05-03T05:55:25.290Z,1008.76
2019-05-03T05:56:25.097Z,1008.75
2019-05-03T05:57:25.601Z,1008.70
2019-05-03T05:58:25.627Z,1008.73
2019-05-03T05:59:24.826Z,1008.75
2019-05-03T06:00:25.671Z,1008.74
2019-05-03T06:01:25.011Z,1008.80
2019-05-03T06:02:25.369Z,1008.86
2019-05-03T06:03:25.283Z,1008.86
2019-05-03T06:04:24.593Z,1008.93
2019-05-03T06:05:25.179Z,1008.92
2019-05-03T06:06:24.487Z,1008.88
2019-05-03T06:07:24.848Z,1008.99
2019-05-03T06:08:25.111Z,1008.88
2019-05-03T06:09:25.633Z,1008.88
2019-05-03T06:10:24.883Z,1008.91
2019-05-03T06:11:25.824Z,1008.91
2019-05-03T06:12:25.067Z,1008.89
2019-05-03T06:13:24.078Z,1008.96
2019-05-03T06:14:24.508Z,1008.90
2019-05-03T06:15:25.015Z,1008.90
2019-05-03T06:16:24.516Z,1008.95
2019-05-03T06:17:24.521Z,1008.93
2019-05-03T06:18:25.057Z,1009.00
2019-05-03T06:19:25.302Z,1009.00
2019-05-03T06:20:24.577Z,1008.99
2019-05-03T06:21:25.097Z,1009.00
2019-05-03T06:22:25.699Z,1009.03
2019-05-03T06:23:24.799Z,1009.06
2019-05-03T06:24:24.922Z,1009.79
2019-05-03T06:25:26.572Z,1010.05
2019-05-03T06:26:25.302Z,1010.08
2019-05-03T06:27:24.435Z,1010.12
2019-05-03T06:28:25.179Z,1010.14
2019-05-03T06:29:24.794Z,1010.18
2019-05-03T06:30:24.837Z,1009.32
2019-05-03T06:31:25.288Z,1010.16
2019-05-03T06:32:25.401Z,1010.36
2019-05-03T06:33:24.472Z,1010.33
2019-05-03T06:34:25.191Z,1010.37
2019-05-03T06:35:24.421Z,1010.43
2019-05-03T06:36:24.392Z,1010.50
2019-05-03T06:37:25.116Z,1010.50
2019-05-03T06:38:24.443Z,1010.57
2019-05-03T06:39:24.894Z,1010.60
2019-05-03T06:40:25.276Z,1010.59
2019-05-03T06:41:25.052Z,1010.58
2019-05-03T06:42:25.493Z,1010.49
2019-05-03T06:43:24.463Z,1010.54
2019-05-03T06:44:28.262Z,1010.70
2019-05-03T06:45:25.118Z,1010.79
2019-05-03T06:46:30.253Z,1010.72
2019-05-03T06:47:25.337Z,1010.07
2019-05-03T06:48:28.019Z,1010.74
2019-05-03T06:49:25.504Z,1010.70
2019-05-03T06:50:25.230Z,1010.70
2019-05-03T06:51:24.842Z,1010.49
2019-05-03T06:52:25.488Z,1010.29
2019-05-03T06:53:25.402Z,1010.42
2019-05-03T06:54:28.316Z,1010.75
2019-05-03T06:55:24.784Z,1010.47
2019-05-03T06:56:28.900Z,1009.87
2019-05-03T06:57:25.368Z,1010.80
2019-05-03T06:58:31.251Z,1010.62
2019-05-03T06:59:24.996Z,1009.92
2019-05-03T07:00:24.801Z,1010.29
2019-05-03T07:01:25.308Z,1010.77
2019-05-03T07:02:25.141Z,1009.84
2019-05-03T07:03:25.152Z,1009.68
2019-05-03T07:04:24.595Z,1009.72
2019-05-03T07:05:25.104Z,1010.64
2019-05-03T07:06:36.726Z,1010.77
2019-05-03T07:07:27.778Z,1010.76
2019-05-03T07:08:25.365Z,1010.47
2019-05-03T07:09:25.035Z,1009.86
2019-05-03T07:10:24.938Z,1010.60
2019-05-03T07:11:24.732Z,1009.78
2019-05-03T07:12:25.019Z,1009.74
2019-05-03T07:13:25.454Z,1009.84
2019-05-03T07:14:24.678Z,1010.82
2019-05-03T07:15:25.173Z,1010.12
2019-05-03T07:16:25.296Z,1009.89
2019-05-03T07:17:24.813Z,1009.76
2019-05-03T07:18:24.768Z,1009.64
2019-05-03T07:19:24.988Z,1009.99
2019-05-03T07:20:25.461Z,1009.79
2019-05-03T07:21:24.734Z,1009.84
2019-05-03T07:22:24.493Z,1010.48
2019-05-03T07:23:24.573Z,1009.78
2019-05-03T07:24:24.874Z,1009.64
2019-05-03T07:25:25.594Z,1009.54
2019-05-03T07:26:25.448Z,1009.46
2019-05-03T07:27:24.760Z,1010.44
2019-05-03T07:28:24.812Z,1010.54
2019-05-03T07:29:25.514Z,1010.04
2019-05-03T07:30:24.783Z,1009.80
2019-05-03T07:31:25.482Z,1009.78
2019-05-03T07:32:24.698Z,1009.87
2019-05-03T07:33:25.422Z,1009.78
2019-05-03T07:34:24.813Z,1009.85
2019-05-03T07:35:25.188Z,1009.86
2019-05-03T07:36:28.094Z,1009.90
2019-05-03T07:37:24.651Z,1009.88
2019-05-03T07:38:24.848Z,1009.83
2019-05-03T07:39:24.629Z,1009.87
2019-05-03T07:40:25.298Z,1009.96
2019-05-03T07:41:26.548Z,1009.87
2019-05-03T07:42:25.636Z,1009.89
2019-05-03T07:43:24.576Z,1009.87
2019-05-03T07:44:25.552Z,1009.84
2019-05-03T07:45:25.394Z,1009.88
2019-05-03T07:46:24.744Z,1009.91
2019-05-03T07:47:24.768Z,1009.92
2019-05-03T07:48:25.516Z,1009.87
2019-05-03T07:49:24.971Z,1009.94
2019-05-03T07:50:25.850Z,1009.96
2019-05-03T07:51:24.894Z,1009.87
2019-05-03T07:52:25.865Z,1010.00
2019-05-03T07:53:25.259Z,1009.97
2019-05-03T07:54:24.889Z,1009.99
2019-05-03T07:55:24.980Z,1009.95
2019-05-03T07:56:25.469Z,1009.93
2019-05-03T07:57:25.443Z,1009.94
2019-05-03T07:58:25.307Z,1009.97
2019-05-03T07:59:25.065Z,1010.02
2019-05-03T08:00:25.386Z,1010.06
2019-05-03T08:01:25.195Z,1009.74
2019-05-03T08:02:27.265Z,1009.71
2019-05-03T08:03:24.470Z,1009.68
2019-05-03T08:04:25.558Z,1009.87
2019-05-03T08:05:24.737Z,1009.93
2019-05-03T08:06:24.802Z,1009.90
2019-05-03T08:07:25.804Z,1010.02
2019-05-03T08:08:25.078Z,1010.11
2019-05-03T08:09:24.681Z,1010.17
2019-05-03T08:10:25.611Z,1010.01
2019-05-03T08:11:24.906Z,1009.89
2019-05-03T08:12:24.773Z,1009.69
2019-05-03T08:13:25.327Z,1010.05
2019-05-03T08:14:25.210Z,1009.60
2019-05-03T08:15:24.655Z,1010.05
2019-05-03T08:16:25.202Z,1010.02
2019-05-03T08:17:25.551Z,1010.00
2019-05-03T08:18:25.749Z,1010.06
2019-05-03T08:19:26.988Z,1010.09
2019-05-03T08:20:24.903Z,1010.11
2019-05-03T08:21:25.201Z,1010.11
2019-05-03T08:22:25.570Z,1010.27
2019-05-03T08:23:29.954Z,1009.97
2019-05-03T08:24:25.317Z,1010.20
2019-05-03T08:25:24.983Z,1009.82
2019-05-03T08:26:25.725Z,1009.78
2019-05-03T08:27:25.138Z,1009.81
2019-05-03T08:28:24.737Z,1009.93
2019-05-03T08:29:24.954Z,1010.35
2019-05-03T08:30:25.051Z,1010.16
2019-05-03T08:31:26.483Z,1009.62
2019-05-03T08:32:24.661Z,1009.52
2019-05-03T08:33:25.016Z,1009.60
2019-05-03T08:34:25.750Z,1009.58
2019-05-03T08:35:24.648Z,1009.62
2019-05-03T08:36:24.889Z,1009.56
2019-05-03T08:37:24.667Z,1010.04
2019-05-03T08:38:25.782Z,1010.16
2019-05-03T08:39:25.344Z,1010.19
2019-05-03T08:40:24.721Z,1010.12
2019-05-03T08:41:24.798Z,1009.72
2019-05-03T08:42:25.374Z,1009.63
2019-05-03T08:43:25.511Z,1010.13
2019-05-03T08:44:25.110Z,1010.05
2019-05-03T08:45:25.607Z,1010.10
2019-05-03T08:46:25.309Z,1010.07
2019-05-03T08:47:24.930Z,1010.12
2019-05-03T08:48:25.102Z,1010.20
2019-05-03T08:49:25.499Z,1010.25
2019-05-03T08:50:25.651Z,1010.25
2019-05-03T08:51:25.135Z,1010.15
2019-05-03T08:52:24.984Z,1010.15
2019-05-03T08:53:25.632Z,1010.14
2019-05-03T08:54:25.529Z,1010.09
2019-05-03T08:55:25.089Z,1010.14
2019-05-03T08:56:24.822Z,1010.13
2019-05-03T08:57:25.407Z,1010.07
2019-05-03T08:58:25.582Z,1009.99
2019-05-03T08:59:29.694Z,1010.27
2019-05-03T09:00:25.034Z,1010.22
2019-05-03T09:01:25.296Z,1010.32
2019-05-03T09:02:25.865Z,1010.18
2019-05-03T09:03:25.065Z,1010.25
2019-05-03T09:04:35.994Z,1010.27
2019-05-03T09:05:25.174Z,1010.32
2019-05-03T09:06:24.953Z,1009.82
2019-05-03T09:07:25.459Z,1009.81
2019-05-03T09:08:25.041Z,1009.80
2019-05-03T09:09:25.516Z,1009.66
2019-05-03T09:10:25.059Z,1009.65
2019-05-03T09:11:31.800Z,1009.80
2019-05-03T09:12:25.324Z,1009.74
2019-05-03T09:13:25.260Z,1009.90
2019-05-03T09:14:38.495Z,1009.89
2019-05-03T09:15:25.060Z,1010.14
2019-05-03T09:16:25.271Z,1010.43
2019-05-03T09:17:25.090Z,1010.37
2019-05-03T09:18:25.837Z,1010.05
2019-05-03T09:19:25.395Z,1009.70
2019-05-03T09:20:25.157Z,1009.64
2019-05-03T09:21:25.624Z,1009.52
2019-05-03T09:22:25.629Z,1009.49
2019-05-03T09:23:26.043Z,1009.36
2019-05-03T09:24:25.168Z,1009.30
2019-05-03T09:25:25.172Z,1009.28
2019-05-03T09:26:29.262Z,1009.23
2019-05-03T09:27:25.254Z,1009.25
2019-05-03T09:28:28.812Z,1009.21
2019-05-03T09:29:25.560Z,1009.19
2019-05-03T09:30:25.253Z,1009.19
2019-05-03T09:31:25.234Z,1009.19
2019-05-03T09:32:25.656Z,1009.20
2019-05-03T09:33:25.244Z,1009.15
2019-05-03T09:34:25.746Z,1009.09
2019-05-03T09:35:30.543Z,1009.13
2019-05-03T09:36:25.584Z,1009.08
2019-05-03T09:37:25.270Z,1009.14
2019-05-03T09:38:25.728Z,1009.10
2019-05-03T09:39:25.278Z,1009.04
2019-05-03T09:40:25.285Z,1009.06
2019-05-03T09:41:25.791Z,1009.01
2019-05-03T09:42:25.305Z,1008.99
2019-05-03T09:43:25.304Z,1009.00
2019-05-03T09:44:25.306Z,1009.02
2019-05-03T09:45:25.315Z,1009.04
2019-05-03T09:46:26.489Z,1009.08
2019-05-03T09:47:25.408Z,1009.10
2019-05-03T09:48:25.644Z,1009.09
2019-05-03T09:49:25.484Z,1009.48
2019-05-03T09:50:25.324Z,1009.34
2019-05-03T09:51:25.551Z,1009.64
2019-05-03T09:52:25.328Z,1009.29
2019-05-03T09:53:25.665Z,1009.26
2019-05-03T09:54:25.596Z,1009.53
2019-05-03T09:55:25.461Z,1009.18
2019-05-03T09:56:25.924Z,1009.33
2019-05-03T09:57:25.348Z,1009.15
2019-05-03T09:58:26.382Z,1009.23
2019-05-03T09:59:25.558Z,1009.26
2019-05-03T10:00:25.353Z,1009.42
2019-05-03T10:01:25.615Z,1009.25
2019-05-03T10:02:25.371Z,1009.17
2019-05-03T10:03:25.369Z,1009.12
2019-05-03T10:04:25.616Z,1009.07
2019-05-03T10:05:25.684Z,1009.12
2019-05-03T10:06:25.375Z,1009.07
2019-05-03T10:07:25.919Z,1009.17
2019-05-03T10:08:25.605Z,1009.32
2019-05-03T10:09:26.350Z,1009.35
2019-05-03T10:10:25.388Z,1009.34
2019-05-03T10:11:25.528Z,1009.34
2019-05-03T10:12:25.708Z,1009.31
2019-05-03T10:13:27.150Z,1009.33
2019-05-03T10:14:25.407Z,1009.35
2019-05-03T10:15:26.059Z,1009.32
2019-05-03T10:16:25.416Z,1009.35
2019-05-03T10:17:25.416Z,1009.31
2019-05-03T10:18:25.659Z,1009.37
2019-05-03T10:19:37.112Z,1009.33
2019-05-03T10:20:25.426Z,1009.34
2019-05-03T10:21:25.824Z,1009.31
2019-05-03T10:22:25.441Z,1009.35
2019-05-03T10:23:25.440Z,1009.34
2019-05-03T10:24:25.448Z,1009.43
2019-05-03T10:25:25.456Z,1009.39
2019-05-03T10:26:25.461Z,1009.41
2019-05-03T10:27:25.471Z,1009.49
2019-05-03T10:28:25.477Z,1009.46
2019-05-03T10:29:25.478Z,1009.49
2019-05-03T10:30:25.485Z,1009.52
2019-05-03T10:31:25.494Z,1009.62
2019-05-03T10:32:25.500Z,1009.53
2019-05-03T10:33:26.175Z,1009.39
2019-05-03T10:34:25.520Z,1009.30
2019-05-03T10:35:25.527Z,1009.28
2019-05-03T10:36:25.536Z,1009.25
2019-05-03T10:37:25.539Z,1009.23
2019-05-03T10:38:25.549Z,1009.21
2019-05-03T10:39:26.337Z,1009.22
2019-05-03T10:40:25.569Z,1009.24
2019-05-03T10:41:25.574Z,1009.10
2019-05-03T10:42:25.580Z,1009.13
2019-05-03T10:43:25.590Z,1009.13
2019-05-03T10:44:25.596Z,1009.08
2019-05-03T10:45:27.951Z,1009.09
2019-05-03T10:46:25.616Z,1009.15
2019-05-03T10:47:25.635Z,1009.12
2019-05-03T10:48:25.624Z,1009.07
2019-05-03T10:49:25.625Z,1008.99
2019-05-03T10:50:25.630Z,1008.99
2019-05-03T10:51:25.638Z,1008.92
2019-05-03T10:52:25.851Z,1009.00
2019-05-03T10:53:25.651Z,1008.98
2019-05-03T10:54:25.656Z,1009.02
2019-05-03T10:55:25.662Z,1009.06
2019-05-03T10:56:26.811Z,1009.07
2019-05-03T10:57:25.671Z,1009.05
2019-05-03T10:58:25.675Z,1009.13
2019-05-03T10:59:25.675Z,1009.03
2019-05-03T11:00:48.361Z,1009.05
2019-05-03T11:01:25.678Z,1009.21
2019-05-03T11:02:25.681Z,1009.29
2019-05-03T11:03:25.684Z,1009.18
2019-05-03T11:04:25.692Z,1009.02
2019-05-03T11:05:25.696Z,1009.10
2019-05-03T11:06:25.701Z,1009.21
2019-05-03T11:07:25.839Z,1009.00
2019-05-03T11:08:25.717Z,1009.05
2019-05-03T11:09:26.082Z,1009.12
2019-05-03T11:10:25.713Z,1009.12
2019-05-03T11:11:25.970Z,1009.11
2019-05-03T11:12:25.726Z,1009.04
2019-05-03T11:13:26.437Z,1009.06
2019-05-03T11:14:25.729Z,1009.08
2019-05-03T11:15:26.007Z,1009.03
2019-05-03T11:16:25.734Z,1009.02
2019-05-03T11:17:25.780Z,1009.06
2019-05-03T11:18:25.746Z,1009.12
2019-05-03T11:19:25.753Z,1009.06
2019-05-03T11:20:29.083Z,1009.01
2019-05-03T11:21:28.884Z,1008.97
2019-05-03T11:22:25.758Z,1009.02
2019-05-03T11:23:25.763Z,1008.98
2019-05-03T11:24:27.544Z,1009.04
2019-05-03T11:25:25.773Z,1009.02
2019-05-03T11:26:25.777Z,1008.97
2019-05-03T11:27:25.777Z,1008.97
2019-05-03T11:28:25.780Z,1008.97
2019-05-03T11:29:25.786Z,1008.89
2019-05-03T11:30:25.790Z,1008.94
2019-05-03T11:31:25.790Z,1008.91
2019-05-03T11:32:25.794Z,1008.89
2019-05-03T11:33:25.798Z,1008.85
2019-05-03T11:34:25.794Z,1008.83
2019-05-03T11:35:25.806Z,1008.80
2019-05-03T11:36:25.800Z,1008.76
2019-05-03T11:37:25.808Z,1008.79
2019-05-03T11:38:25.809Z,1008.79
2019-05-03T11:39:25.815Z,1008.79
2019-05-03T11:40:25.818Z,1008.81
2019-05-03T11:41:32.169Z,1008.76
2019-05-03T11:42:25.820Z,1008.74
2019-05-03T11:43:25.823Z,1008.68
2019-05-03T11:44:25.826Z,1008.75
2019-05-03T11:45:25.825Z,1008.75
2019-05-03T11:46:25.826Z,1008.66
2019-05-03T11:47:27.725Z,1008.65
2019-05-03T11:48:25.827Z,1008.59
2019-05-03T11:49:25.833Z,1008.53
2019-05-03T11:50:25.834Z,1008.53
2019-05-03T11:51:25.835Z,1008.54
2019-05-03T11:52:25.961Z,1008.57
2019-05-03T11:53:25.835Z,1008.59
2019-05-03T11:54:25.836Z,1008.54
2019-05-03T11:55:26.859Z,1008.52
2019-05-03T11:56:25.843Z,1008.45
2019-05-03T11:57:26.352Z,1008.53
2019-05-03T11:58:27.318Z,1008.55
2019-05-03T11:59:26.591Z,1008.56
2019-05-03T12:00:26.816Z,1008.56
2019-05-03T12:01:25.889Z,1008.56
2019-05-03T12:02:25.851Z,1008.55
2019-05-03T12:03:25.850Z,1008.56
2019-05-03T12:04:25.852Z,1008.54
2019-05-03T12:05:25.854Z,1008.51